sensor_id;sensor_type;location;lat;lon;timestamp;P1;durP1;ratioP1;P2;durP2;ratioP2
63008;SDS011;49099;28.428;-16.488;2023-04-01T00:01:56;39.67;;;7.45;;
63008;SDS011;49099;28.428;-16.488;2023-04-01T00:04:23;42.92;;;8.93;;
63008;SDS011;49099;28.428;-16.488;2023-04-01T00:06:50;44.70;;;8.60;;
63008;SDS011;49099;28.428;-16.488;2023-04-01T00:09:18;34.97;;;7.90;;
63008;SDS011;49099;28.428;-16.488;2023-04-01T00:11:45;43.95;;;8.18;;
63008;SDS011;49099;28.428;-16.488;2023-04-01T00:14:13;33.80;;;7.82;;
63008;SDS011;49099;28.428;-16.488;2023-04-01T00:16:40;44.17;;;7.95;;
63008;SDS011;49099;28.428;-16.488;2023-04-01T00:19:07;42.60;;;8.38;;
63008;SDS011;49099;28.428;-16.488;2023-04-01T00:21:34;51.83;;;8.70;;
63008;SDS011;49099;28.428;-16.488;2023-04-01T00:24:03;35.45;;;7.28;;
63008;SDS011;49099;28.428;-16.488;2023-04-01T00:26:30;47.53;;;8.48;;
63008;SDS011;49099;28.428;-16.488;2023-04-01T00:28:58;45.30;;;8.45;;
63008;SDS011;49099;28.428;-16.488;2023-04-01T00:31:25;36.13;;;7.13;;
63008;SDS011;49099;28.428;-16.488;2023-04-01T00:33:52;38.67;;;7.88;;
63008;SDS011;49099;28.428;-16.488;2023-04-01T00:36:20;36.35;;;7.00;;
63008;SDS011;49099;28.428;-16.488;2023-04-01T00:38:48;39.28;;;7.90;;
63008;SDS011;49099;28.428;-16.488;2023-04-01T00:41:17;40.75;;;8.57;;
63008;SDS011;49099;28.428;-16.488;2023-04-01T00:43:46;30.10;;;7.18;;
63008;SDS011;49099;28.428;-16.488;2023-04-01T00:46:15;36.20;;;7.55;;
63008;SDS011;49099;28.428;-16.488;2023-04-01T00:48:49;29.15;;;6.88;;
63008;SDS011;49099;28.428;-16.488;2023-04-01T00:51:20;38.78;;;7.20;;
63008;SDS011;49099;28.428;-16.488;2023-04-01T00:53:50;38.17;;;8.30;;
63008;SDS011;49099;28.428;-16.488;2023-04-01T00:56:45;43.30;;;7.78;;
63008;SDS011;49099;28.428;-16.488;2023-04-01T00:59:23;35.58;;;7.65;;
63008;SDS011;49099;28.428;-16.488;2023-04-01T01:01:53;29.10;;;6.88;;
63008;SDS011;49099;28.428;-16.488;2023-04-01T01:04:30;37.17;;;7.70;;
63008;SDS011;49099;28.428;-16.488;2023-04-01T01:07:02;41.72;;;7.72;;
63008;SDS011;49099;28.428;-16.488;2023-04-01T01:15:20;40.28;;;7.55;;
63008;SDS011;49099;28.428;-16.488;2023-04-01T01:31:16;36.10;;;6.95;;
63008;SDS011;49099;28.428;-16.488;2023-04-01T01:36:40;41.28;;;8.00;;
63008;SDS011;49099;28.428;-16.488;2023-04-01T01:39:11;34.08;;;7.13;;
63008;SDS011;49099;28.428;-16.488;2023-04-01T01:41:41;45.90;;;8.52;;
63008;SDS011;49099;28.428;-16.488;2023-04-01T01:44:11;51.90;;;8.50;;
63008;SDS011;49099;28.428;-16.488;2023-04-01T01:46:41;34.47;;;7.28;;
63008;SDS011;49099;28.428;-16.488;2023-04-01T01:49:10;51.13;;;8.30;;
63008;SDS011;49099;28.428;-16.488;2023-04-01T01:51:39;54.38;;;9.80;;
63008;SDS011;49099;28.428;-16.488;2023-04-01T01:54:06;44.08;;;8.32;;
63008;SDS011;49099;28.428;-16.488;2023-04-01T01:56:39;37.90;;;8.00;;
63008;SDS011;49099;28.428;-16.488;2023-04-01T01:59:09;47.70;;;8.68;;
63008;SDS011;49099;28.428;-16.488;2023-04-01T02:01:39;48.45;;;8.23;;
63008;SDS011;49099;28.428;-16.488;2023-04-01T02:04:11;41.70;;;7.82;;
63008;SDS011;49099;28.428;-16.488;2023-04-01T02:06:46;36.83;;;6.93;;
63008;SDS011;49099;28.428;-16.488;2023-04-01T02:09:20;50.05;;;7.97;;
63008;SDS011;49099;28.428;-16.488;2023-04-01T02:11:48;46.85;;;8.57;;
63008;SDS011;49099;28.428;-16.488;2023-04-01T02:14:20;31.00;;;7.18;;
63008;SDS011;49099;28.428;-16.488;2023-04-01T02:16:51;50.13;;;8.15;;
63008;SDS011;49099;28.428;-16.488;2023-04-01T02:19:20;48.28;;;8.05;;
63008;SDS011;49099;28.428;-16.488;2023-04-01T02:21:53;41.30;;;7.53;;
63008;SDS011;49099;28.428;-16.488;2023-04-01T02:24:24;49.78;;;7.95;;
63008;SDS011;49099;28.428;-16.488;2023-04-01T02:26:54;55.78;;;9.07;;
63008;SDS011;49099;28.428;-16.488;2023-04-01T02:29:22;40.05;;;7.15;;
63008;SDS011;49099;28.428;-16.488;2023-04-01T02:31:52;50.05;;;8.38;;
63008;SDS011;49099;28.428;-16.488;2023-04-01T02:34:22;40.90;;;8.07;;
63008;SDS011;49099;28.428;-16.488;2023-04-01T02:36:52;36.03;;;7.72;;
63008;SDS011;49099;28.428;-16.488;2023-04-01T02:39:20;33.30;;;7.15;;
63008;SDS011;49099;28.428;-16.488;2023-04-01T02:41:48;33.97;;;7.28;;
63008;SDS011;49099;28.428;-16.488;2023-04-01T02:44:15;55.55;;;8.38;;
63008;SDS011;49099;28.428;-16.488;2023-04-01T02:46:42;38.92;;;7.57;;
63008;SDS011;49099;28.428;-16.488;2023-04-01T02:49:10;39.53;;;8.15;;
63008;SDS011;49099;28.428;-16.488;2023-04-01T02:51:37;38.17;;;7.10;;
63008;SDS011;49099;28.428;-16.488;2023-04-01T02:54:04;40.45;;;7.28;;
63008;SDS011;49099;28.428;-16.488;2023-04-01T02:56:32;40.60;;;7.75;;
63008;SDS011;49099;28.428;-16.488;2023-04-01T02:58:59;44.55;;;7.85;;
63008;SDS011;49099;28.428;-16.488;2023-04-01T03:01:26;37.80;;;7.75;;
63008;SDS011;49099;28.428;-16.488;2023-04-01T03:03:53;44.20;;;7.43;;
63008;SDS011;49099;28.428;-16.488;2023-04-01T03:06:20;37.80;;;7.43;;
63008;SDS011;49099;28.428;-16.488;2023-04-01T03:08:48;43.55;;;7.97;;
63008;SDS011;49099;28.428;-16.488;2023-04-01T03:11:15;43.83;;;8.02;;
63008;SDS011;49099;28.428;-16.488;2023-04-01T03:13:42;41.05;;;7.60;;
63008;SDS011;49099;28.428;-16.488;2023-04-01T03:16:09;70.88;;;11.95;;
63008;SDS011;49099;28.428;-16.488;2023-04-01T03:18:37;75.20;;;14.88;;
63008;SDS011;49099;28.428;-16.488;2023-04-01T03:21:17;61.25;;;11.38;;
63008;SDS011;49099;28.428;-16.488;2023-04-01T03:23:44;70.32;;;12.63;;
63008;SDS011;49099;28.428;-16.488;2023-04-01T03:26:12;37.67;;;7.88;;
63008;SDS011;49099;28.428;-16.488;2023-04-01T03:28:40;47.08;;;8.73;;
63008;SDS011;49099;28.428;-16.488;2023-04-01T03:31:07;36.83;;;8.15;;
63008;SDS011;49099;28.428;-16.488;2023-04-01T03:33:35;39.15;;;8.02;;
63008;SDS011;49099;28.428;-16.488;2023-04-01T03:36:02;54.33;;;9.15;;
63008;SDS011;49099;28.428;-16.488;2023-04-01T03:38:33;48.08;;;8.80;;
63008;SDS011;49099;28.428;-16.488;2023-04-01T03:41:01;42.88;;;7.55;;
63008;SDS011;49099;28.428;-16.488;2023-04-01T03:43:29;50.10;;;8.50;;
63008;SDS011;49099;28.428;-16.488;2023-04-01T03:45:56;42.63;;;7.30;;
63008;SDS011;49099;28.428;-16.488;2023-04-01T03:48:26;49.40;;;8.13;;
63008;SDS011;49099;28.428;-16.488;2023-04-01T03:50:53;40.97;;;7.93;;
63008;SDS011;49099;28.428;-16.488;2023-04-01T03:53:20;45.80;;;7.78;;
63008;SDS011;49099;28.428;-16.488;2023-04-01T03:55:48;43.60;;;7.90;;
63008;SDS011;49099;28.428;-16.488;2023-04-01T03:58:17;45.53;;;8.32;;
63008;SDS011;49099;28.428;-16.488;2023-04-01T04:00:44;38.22;;;7.35;;
63008;SDS011;49099;28.428;-16.488;2023-04-01T04:03:12;42.22;;;7.07;;
63008;SDS011;49099;28.428;-16.488;2023-04-01T04:05:45;35.50;;;6.97;;
63008;SDS011;49099;28.428;-16.488;2023-04-01T04:08:13;37.33;;;6.80;;
63008;SDS011;49099;28.428;-16.488;2023-04-01T04:10:41;34.25;;;7.15;;
63008;SDS011;49099;28.428;-16.488;2023-04-01T04:13:08;45.75;;;7.20;;
63008;SDS011;49099;28.428;-16.488;2023-04-01T04:15:36;42.80;;;7.20;;
63008;SDS011;49099;28.428;-16.488;2023-04-01T04:18:04;40.08;;;7.80;;
63008;SDS011;49099;28.428;-16.488;2023-04-01T04:20:31;45.33;;;7.82;;
63008;SDS011;49099;28.428;-16.488;2023-04-01T04:22:59;46.67;;;8.55;;
63008;SDS011;49099;28.428;-16.488;2023-04-01T04:25:27;39.03;;;7.55;;
63008;SDS011;49099;28.428;-16.488;2023-04-01T04:27:54;42.78;;;7.50;;
63008;SDS011;49099;28.428;-16.488;2023-04-01T04:30:21;41.10;;;8.00;;
63008;SDS011;49099;28.428;-16.488;2023-04-01T04:32:48;42.92;;;7.90;;
63008;SDS011;49099;28.428;-16.488;2023-04-01T04:35:15;40.20;;;7.57;;
63008;SDS011;49099;28.428;-16.488;2023-04-01T04:37:42;33.78;;;6.32;;
63008;SDS011;49099;28.428;-16.488;2023-04-01T04:40:10;35.75;;;7.50;;
63008;SDS011;49099;28.428;-16.488;2023-04-01T04:42:37;35.78;;;7.22;;
63008;SDS011;49099;28.428;-16.488;2023-04-01T04:45:04;35.10;;;7.05;;
63008;SDS011;49099;28.428;-16.488;2023-04-01T04:47:31;48.80;;;8.00;;
63008;SDS011;49099;28.428;-16.488;2023-04-01T04:49:59;44.42;;;7.85;;
63008;SDS011;49099;28.428;-16.488;2023-04-01T04:52:26;40.45;;;7.93;;
63008;SDS011;49099;28.428;-16.488;2023-04-01T04:54:53;35.08;;;6.38;;
63008;SDS011;49099;28.428;-16.488;2023-04-01T04:57:20;37.28;;;6.78;;
63008;SDS011;49099;28.428;-16.488;2023-04-01T04:59:47;39.75;;;7.40;;
63008;SDS011;49099;28.428;-16.488;2023-04-01T05:02:14;33.15;;;7.00;;
63008;SDS011;49099;28.428;-16.488;2023-04-01T05:04:42;46.78;;;7.82;;
63008;SDS011;49099;28.428;-16.488;2023-04-01T05:07:10;45.22;;;8.25;;
63008;SDS011;49099;28.428;-16.488;2023-04-01T05:09:37;50.78;;;7.28;;
63008;SDS011;49099;28.428;-16.488;2023-04-01T05:12:04;38.60;;;7.15;;
63008;SDS011;49099;28.428;-16.488;2023-04-01T05:14:31;36.42;;;7.32;;
63008;SDS011;49099;28.428;-16.488;2023-04-01T05:16:58;37.60;;;7.10;;
63008;SDS011;49099;28.428;-16.488;2023-04-01T05:19:25;36.50;;;6.57;;
63008;SDS011;49099;28.428;-16.488;2023-04-01T05:21:53;47.13;;;7.90;;
63008;SDS011;49099;28.428;-16.488;2023-04-01T05:24:20;37.97;;;6.90;;
63008;SDS011;49099;28.428;-16.488;2023-04-01T05:26:47;50.70;;;7.93;;
63008;SDS011;49099;28.428;-16.488;2023-04-01T05:29:14;32.35;;;6.50;;
63008;SDS011;49099;28.428;-16.488;2023-04-01T05:31:41;44.20;;;8.50;;
63008;SDS011;49099;28.428;-16.488;2023-04-01T05:34:08;38.00;;;7.45;;
63008;SDS011;49099;28.428;-16.488;2023-04-01T05:36:35;36.75;;;6.63;;
63008;SDS011;49099;28.428;-16.488;2023-04-01T05:39:03;28.13;;;5.70;;
63008;SDS011;49099;28.428;-16.488;2023-04-01T05:41:30;34.05;;;6.65;;
63008;SDS011;49099;28.428;-16.488;2023-04-01T05:43:57;41.30;;;7.50;;
63008;SDS011;49099;28.428;-16.488;2023-04-01T05:46:24;33.70;;;6.38;;
63008;SDS011;49099;28.428;-16.488;2023-04-01T05:48:51;39.92;;;7.90;;
63008;SDS011;49099;28.428;-16.488;2023-04-01T05:51:18;35.00;;;6.82;;
63008;SDS011;49099;28.428;-16.488;2023-04-01T05:53:45;48.00;;;7.05;;
63008;SDS011;49099;28.428;-16.488;2023-04-01T05:56:13;46.78;;;7.57;;
63008;SDS011;49099;28.428;-16.488;2023-04-01T05:58:40;48.75;;;7.10;;
63008;SDS011;49099;28.428;-16.488;2023-04-01T06:01:08;42.35;;;7.97;;
63008;SDS011;49099;28.428;-16.488;2023-04-01T06:03:41;41.45;;;8.15;;
63008;SDS011;49099;28.428;-16.488;2023-04-01T06:06:20;46.22;;;7.65;;
63008;SDS011;49099;28.428;-16.488;2023-04-01T06:08:51;47.42;;;8.45;;
63008;SDS011;49099;28.428;-16.488;2023-04-01T06:11:34;34.10;;;7.07;;
63008;SDS011;49099;28.428;-16.488;2023-04-01T06:26:11;53.08;;;7.97;;
63008;SDS011;49099;28.428;-16.488;2023-04-01T06:29:02;44.50;;;8.02;;
63008;SDS011;49099;28.428;-16.488;2023-04-01T06:31:44;49.83;;;8.68;;
63008;SDS011;49099;28.428;-16.488;2023-04-01T06:34:27;41.05;;;7.28;;
63008;SDS011;49099;28.428;-16.488;2023-04-01T06:37:08;36.28;;;7.30;;
63008;SDS011;49099;28.428;-16.488;2023-04-01T06:53:17;41.08;;;7.63;;
63008;SDS011;49099;28.428;-16.488;2023-04-01T06:58:24;33.40;;;6.53;;
63008;SDS011;49099;28.428;-16.488;2023-04-01T07:00:59;36.03;;;7.93;;
63008;SDS011;49099;28.428;-16.488;2023-04-01T07:06:04;34.90;;;6.97;;
63008;SDS011;49099;28.428;-16.488;2023-04-01T07:08:36;40.17;;;7.68;;
63008;SDS011;49099;28.428;-16.488;2023-04-01T07:11:11;38.17;;;7.70;;
63008;SDS011;49099;28.428;-16.488;2023-04-01T07:13:55;41.03;;;7.57;;
63008;SDS011;49099;28.428;-16.488;2023-04-01T07:16:41;31.52;;;6.35;;
63008;SDS011;49099;28.428;-16.488;2023-04-01T07:19:28;28.58;;;6.35;;
63008;SDS011;49099;28.428;-16.488;2023-04-01T07:22:03;35.95;;;7.40;;
63008;SDS011;49099;28.428;-16.488;2023-04-01T07:24:40;44.35;;;7.75;;
63008;SDS011;49099;28.428;-16.488;2023-04-01T07:27:10;36.33;;;7.43;;
63008;SDS011;49099;28.428;-16.488;2023-04-01T07:29:38;30.05;;;6.93;;
63008;SDS011;49099;28.428;-16.488;2023-04-01T07:32:17;42.22;;;7.47;;
63008;SDS011;49099;28.428;-16.488;2023-04-01T07:38:18;41.10;;;9.15;;
63008;SDS011;49099;28.428;-16.488;2023-04-01T07:43:22;41.00;;;8.23;;
63008;SDS011;49099;28.428;-16.488;2023-04-01T07:48:50;56.30;;;8.52;;
63008;SDS011;49099;28.428;-16.488;2023-04-01T07:54:04;46.55;;;8.35;;
63008;SDS011;49099;28.428;-16.488;2023-04-01T08:04:57;37.67;;;8.15;;
63008;SDS011;49099;28.428;-16.488;2023-04-01T08:07:31;49.00;;;7.82;;
63008;SDS011;49099;28.428;-16.488;2023-04-01T08:10:14;48.13;;;8.02;;
63008;SDS011;49099;28.428;-16.488;2023-04-01T08:23:27;32.67;;;6.70;;
63008;SDS011;49099;28.428;-16.488;2023-04-01T08:26:13;41.13;;;8.30;;
63008;SDS011;49099;28.428;-16.488;2023-04-01T08:28:49;33.78;;;6.88;;
63008;SDS011;49099;28.428;-16.488;2023-04-01T08:34:50;53.03;;;9.27;;
63008;SDS011;49099;28.428;-16.488;2023-04-01T08:37:28;51.55;;;10.68;;
63008;SDS011;49099;28.428;-16.488;2023-04-01T08:39:58;47.20;;;8.60;;
63008;SDS011;49099;28.428;-16.488;2023-04-01T08:57:04;39.95;;;7.53;;
63008;SDS011;49099;28.428;-16.488;2023-04-01T09:19:32;48.70;;;7.55;;
63008;SDS011;49099;28.428;-16.488;2023-04-01T09:23:01;34.38;;;6.55;;
63008;SDS011;49099;28.428;-16.488;2023-04-01T09:26:21;41.42;;;7.18;;
63008;SDS011;49099;28.428;-16.488;2023-04-01T09:28:18;36.33;;;6.90;;
63008;SDS011;49099;28.428;-16.488;2023-04-01T09:39:15;43.60;;;7.60;;
63008;SDS011;49099;28.428;-16.488;2023-04-01T09:55:55;48.55;;;8.38;;
63008;SDS011;49099;28.428;-16.488;2023-04-01T10:26:54;70.72;;;12.75;;
63008;SDS011;49099;28.428;-16.488;2023-04-01T11:05:52;62.88;;;12.70;;
63008;SDS011;49099;28.428;-16.488;2023-04-01T11:08:43;65.45;;;12.25;;
63008;SDS011;49099;28.428;-16.488;2023-04-01T11:23:35;54.80;;;10.93;;
63008;SDS011;49099;28.428;-16.488;2023-04-01T11:26:31;58.03;;;11.27;;
63008;SDS011;49099;28.428;-16.488;2023-04-01T11:31:48;79.07;;;15.35;;
63008;SDS011;49099;28.428;-16.488;2023-04-01T11:46:15;50.72;;;10.40;;
63008;SDS011;49099;28.428;-16.488;2023-04-01T11:57:48;50.28;;;9.50;;
63008;SDS011;49099;28.428;-16.488;2023-04-01T12:00:14;65.95;;;12.05;;
63008;SDS011;49099;28.428;-16.488;2023-04-01T12:05:41;63.80;;;12.82;;
63008;SDS011;49099;28.428;-16.488;2023-04-01T12:13:49;71.43;;;12.82;;
63008;SDS011;49099;28.428;-16.488;2023-04-01T12:16:51;76.05;;;12.35;;
63008;SDS011;49099;28.428;-16.488;2023-04-01T12:19:39;58.92;;;12.35;;
63008;SDS011;49099;28.428;-16.488;2023-04-01T12:28:21;57.28;;;10.57;;
63008;SDS011;49099;28.428;-16.488;2023-04-01T12:31:02;71.43;;;12.20;;
63008;SDS011;49099;28.428;-16.488;2023-04-01T12:39:41;93.32;;;14.82;;
63008;SDS011;49099;28.428;-16.488;2023-04-01T12:45:16;61.60;;;11.48;;
63008;SDS011;49099;28.428;-16.488;2023-04-01T13:05:37;64.18;;;11.45;;
63008;SDS011;49099;28.428;-16.488;2023-04-01T13:16:33;62.85;;;10.98;;
63008;SDS011;49099;28.428;-16.488;2023-04-01T13:32:45;59.63;;;10.20;;
63008;SDS011;49099;28.428;-16.488;2023-04-01T13:45:41;51.78;;;9.75;;
63008;SDS011;49099;28.428;-16.488;2023-04-01T13:48:27;51.00;;;9.73;;
63008;SDS011;49099;28.428;-16.488;2023-04-01T13:51:13;77.43;;;11.85;;
63008;SDS011;49099;28.428;-16.488;2023-04-01T14:03:42;54.75;;;9.60;;
63008;SDS011;49099;28.428;-16.488;2023-04-01T14:09:20;54.63;;;9.75;;
63008;SDS011;49099;28.428;-16.488;2023-04-01T14:12:24;61.22;;;9.80;;
63008;SDS011;49099;28.428;-16.488;2023-04-01T14:15:20;53.78;;;9.18;;
63008;SDS011;49099;28.428;-16.488;2023-04-01T14:29:21;67.43;;;9.65;;
63008;SDS011;49099;28.428;-16.488;2023-04-01T14:48:13;46.67;;;7.95;;
63008;SDS011;49099;28.428;-16.488;2023-04-01T14:50:53;44.90;;;8.43;;
63008;SDS011;49099;28.428;-16.488;2023-04-01T14:55:50;47.92;;;8.60;;
63008;SDS011;49099;28.428;-16.488;2023-04-01T14:58:49;53.22;;;8.52;;
63008;SDS011;49099;28.428;-16.488;2023-04-01T15:01:45;42.92;;;7.97;;
63008;SDS011;49099;28.428;-16.488;2023-04-01T15:12:58;44.88;;;7.95;;
63008;SDS011;49099;28.428;-16.488;2023-04-01T15:18:21;43.83;;;7.93;;
63008;SDS011;49099;28.428;-16.488;2023-04-01T15:31:59;45.20;;;8.45;;
63008;SDS011;49099;28.428;-16.488;2023-04-01T15:37:07;39.10;;;7.57;;
63008;SDS011;49099;28.428;-16.488;2023-04-01T15:48:06;33.45;;;6.88;;
63008;SDS011;49099;28.428;-16.488;2023-04-01T15:50:59;36.95;;;7.03;;
63008;SDS011;49099;28.428;-16.488;2023-04-01T16:01:59;37.70;;;7.45;;
63008;SDS011;49099;28.428;-16.488;2023-04-01T16:05:05;33.42;;;6.95;;
63008;SDS011;49099;28.428;-16.488;2023-04-01T16:16:05;40.13;;;7.38;;
63008;SDS011;49099;28.428;-16.488;2023-04-01T16:18:52;48.22;;;7.28;;
63008;SDS011;49099;28.428;-16.488;2023-04-01T16:21:49;39.40;;;7.22;;
63008;SDS011;49099;28.428;-16.488;2023-04-01T16:32:41;41.65;;;7.05;;
63008;SDS011;49099;28.428;-16.488;2023-04-01T16:35:25;44.25;;;7.65;;
63008;SDS011;49099;28.428;-16.488;2023-04-01T16:43:45;40.55;;;7.78;;
63008;SDS011;49099;28.428;-16.488;2023-04-01T16:51:37;34.45;;;7.13;;
63008;SDS011;49099;28.428;-16.488;2023-04-01T16:54:30;42.35;;;7.57;;
63008;SDS011;49099;28.428;-16.488;2023-04-01T17:04:38;39.03;;;7.80;;
63008;SDS011;49099;28.428;-16.488;2023-04-01T17:15:51;37.05;;;7.00;;
63008;SDS011;49099;28.428;-16.488;2023-04-01T17:21:16;29.75;;;6.70;;
63008;SDS011;49099;28.428;-16.488;2023-04-01T17:23:52;40.17;;;7.88;;
63008;SDS011;49099;28.428;-16.488;2023-04-01T17:37:45;36.78;;;7.53;;
63008;SDS011;49099;28.428;-16.488;2023-04-01T17:40:21;31.13;;;6.93;;
63008;SDS011;49099;28.428;-16.488;2023-04-01T17:45:57;35.22;;;7.15;;
63008;SDS011;49099;28.428;-16.488;2023-04-01T17:51:19;39.53;;;7.18;;
63008;SDS011;49099;28.428;-16.488;2023-04-01T17:59:50;35.50;;;6.60;;
63008;SDS011;49099;28.428;-16.488;2023-04-01T18:02:36;34.03;;;6.70;;
63008;SDS011;49099;28.428;-16.488;2023-04-01T18:05:32;29.45;;;6.22;;
63008;SDS011;49099;28.428;-16.488;2023-04-01T18:08:48;33.85;;;6.32;;
63008;SDS011;49099;28.428;-16.488;2023-04-01T18:11:20;32.33;;;6.50;;
63008;SDS011;49099;28.428;-16.488;2023-04-01T18:25:33;26.65;;;5.88;;
63008;SDS011;49099;28.428;-16.488;2023-04-01T18:36:39;33.30;;;5.90;;
63008;SDS011;49099;28.428;-16.488;2023-04-01T18:39:40;31.95;;;6.38;;
63008;SDS011;49099;28.428;-16.488;2023-04-01T18:42:19;28.50;;;5.75;;
63008;SDS011;49099;28.428;-16.488;2023-04-01T18:45:14;32.88;;;5.70;;
63008;SDS011;49099;28.428;-16.488;2023-04-01T18:47:44;32.53;;;6.10;;
63008;SDS011;49099;28.428;-16.488;2023-04-01T18:50:42;40.38;;;6.60;;
63008;SDS011;49099;28.428;-16.488;2023-04-01T18:56:05;38.45;;;6.38;;
63008;SDS011;49099;28.428;-16.488;2023-04-01T19:01:52;31.75;;;5.90;;
63008;SDS011;49099;28.428;-16.488;2023-04-01T19:06:59;39.10;;;6.32;;
63008;SDS011;49099;28.428;-16.488;2023-04-01T19:09:33;30.67;;;5.55;;
63008;SDS011;49099;28.428;-16.488;2023-04-01T19:20:46;34.58;;;6.40;;
63008;SDS011;49099;28.428;-16.488;2023-04-01T19:26:12;48.95;;;6.93;;
63008;SDS011;49099;28.428;-16.488;2023-04-01T19:29:07;39.75;;;6.25;;
63008;SDS011;49099;28.428;-16.488;2023-04-01T19:40:20;31.08;;;5.32;;
63008;SDS011;49099;28.428;-16.488;2023-04-01T19:43:24;40.25;;;6.68;;
63008;SDS011;49099;28.428;-16.488;2023-04-01T19:48:54;33.45;;;6.30;;
63008;SDS011;49099;28.428;-16.488;2023-04-01T19:54:39;41.50;;;7.28;;
63008;SDS011;49099;28.428;-16.488;2023-04-01T20:08:13;44.72;;;7.45;;
63008;SDS011;49099;28.428;-16.488;2023-04-01T20:10:54;46.15;;;7.63;;
63008;SDS011;49099;28.428;-16.488;2023-04-01T20:16:37;47.03;;;7.60;;
63008;SDS011;49099;28.428;-16.488;2023-04-01T20:19:22;46.97;;;7.38;;
63008;SDS011;49099;28.428;-16.488;2023-04-01T20:21:56;41.08;;;7.25;;
63008;SDS011;49099;28.428;-16.488;2023-04-01T20:24:29;33.67;;;6.65;;
63008;SDS011;49099;28.428;-16.488;2023-04-01T20:27:03;34.63;;;5.60;;
63008;SDS011;49099;28.428;-16.488;2023-04-01T20:29:56;41.92;;;7.15;;
63008;SDS011;49099;28.428;-16.488;2023-04-01T20:40:50;39.58;;;7.43;;
63008;SDS011;49099;28.428;-16.488;2023-04-01T20:43:33;66.60;;;8.63;;
63008;SDS011;49099;28.428;-16.488;2023-04-01T20:57:11;44.38;;;8.52;;
63008;SDS011;49099;28.428;-16.488;2023-04-01T21:08:05;41.70;;;7.30;;
63008;SDS011;49099;28.428;-16.488;2023-04-01T21:13:37;42.85;;;7.18;;
63008;SDS011;49099;28.428;-16.488;2023-04-01T21:18:53;47.13;;;6.80;;
63008;SDS011;49099;28.428;-16.488;2023-04-01T21:21:34;41.10;;;7.20;;
63008;SDS011;49099;28.428;-16.488;2023-04-01T21:37:58;40.85;;;6.93;;
63008;SDS011;49099;28.428;-16.488;2023-04-01T21:56:49;31.08;;;7.40;;
63008;SDS011;49099;28.428;-16.488;2023-04-01T21:59:29;34.08;;;6.82;;
63008;SDS011;49099;28.428;-16.488;2023-04-01T22:05:10;28.05;;;5.65;;
63008;SDS011;49099;28.428;-16.488;2023-04-01T22:07:46;23.20;;;5.20;;
63008;SDS011;49099;28.428;-16.488;2023-04-01T22:15:57;33.55;;;5.78;;
63008;SDS011;49099;28.428;-16.488;2023-04-01T22:18:41;38.92;;;6.47;;
63008;SDS011;49099;28.428;-16.488;2023-04-01T22:24:25;32.90;;;6.97;;
63008;SDS011;49099;28.428;-16.488;2023-04-01T22:30:18;26.27;;;4.95;;
63008;SDS011;49099;28.428;-16.488;2023-04-01T22:32:50;23.08;;;5.20;;
63008;SDS011;49099;28.428;-16.488;2023-04-01T22:38:29;32.97;;;6.55;;
63008;SDS011;49099;28.428;-16.488;2023-04-01T22:41:16;32.92;;;6.13;;
63008;SDS011;49099;28.428;-16.488;2023-04-01T22:43:57;35.95;;;6.35;;
63008;SDS011;49099;28.428;-16.488;2023-04-01T22:49:51;25.65;;;5.93;;
63008;SDS011;49099;28.428;-16.488;2023-04-01T22:52:38;22.83;;;4.25;;
63008;SDS011;49099;28.428;-16.488;2023-04-01T22:58:13;20.60;;;4.75;;
63008;SDS011;49099;28.428;-16.488;2023-04-01T23:00:48;21.80;;;4.90;;
63008;SDS011;49099;28.428;-16.488;2023-04-01T23:03:34;28.83;;;5.30;;
63008;SDS011;49099;28.428;-16.488;2023-04-01T23:06:09;27.65;;;4.85;;
63008;SDS011;49099;28.428;-16.488;2023-04-01T23:11:40;36.15;;;7.32;;
63008;SDS011;49099;28.428;-16.488;2023-04-01T23:35:47;23.25;;;4.93;;
63008;SDS011;49099;28.428;-16.488;2023-04-01T23:38:15;22.63;;;4.57;;
63008;SDS011;49099;28.428;-16.488;2023-04-01T23:40:43;24.20;;;4.63;;
63008;SDS011;49099;28.428;-16.488;2023-04-01T23:43:14;28.92;;;5.72;;
63008;SDS011;49099;28.428;-16.488;2023-04-01T23:46:01;24.80;;;4.65;;
63008;SDS011;49099;28.428;-16.488;2023-04-01T23:48:31;29.88;;;4.82;;
63008;SDS011;49099;28.428;-16.488;2023-04-01T23:51:02;26.98;;;4.53;;
63008;SDS011;49099;28.428;-16.488;2023-04-01T23:53:30;35.17;;;5.03;;
63008;SDS011;49099;28.428;-16.488;2023-04-01T23:56:01;21.98;;;4.15;;
63008;SDS011;49099;28.428;-16.488;2023-04-01T23:58:43;31.23;;;5.45;;
